createdAt,value
2023-11-15T00:00:07.953Z,72.47
2023-11-15T00:02:36.079Z,72.11
2023-11-15T00:05:04.390Z,72.55
2023-11-15T00:07:49.850Z,72.02
2023-11-15T00:10:17.482Z,72.27
2023-11-15T00:12:45.115Z,72.43
2023-11-15T00:15:13.202Z,72.06
2023-11-15T00:17:40.873Z,72.36
2023-11-15T00:20:09.457Z,72.45
2023-11-15T00:22:36.852Z,72.34
2023-11-15T00:25:04.654Z,71.53
2023-11-15T00:27:32.777Z,70.77
2023-11-15T00:29:59.995Z,70.62
2023-11-15T00:32:27.776Z,70.43
2023-11-15T00:34:55.068Z,71.09
2023-11-15T00:37:22.455Z,71.01
2023-11-15T00:39:50.109Z,71.61
2023-11-15T00:42:17.359Z,71.85
2023-11-15T00:44:44.641Z,72.08
2023-11-15T00:47:12.337Z,71.73
2023-11-15T00:49:39.867Z,71.95
2023-11-15T00:52:07.445Z,71.90
2023-11-15T00:54:35.102Z,72.17
2023-11-15T00:57:02.320Z,71.68
2023-11-15T00:59:38.248Z,70.41
2023-11-15T01:02:06.753Z,70.56
2023-11-15T01:04:34.343Z,71.32
2023-11-15T01:07:02.827Z,71.52
2023-11-15T01:09:30.712Z,71.24
2023-11-15T01:11:58.063Z,71.39
2023-11-15T01:14:25.454Z,71.41
2023-11-15T01:16:53.298Z,71.40
2023-11-15T01:19:20.730Z,71.53
2023-11-15T01:21:48.320Z,70.91
2023-11-15T01:24:17.733Z,70.27
2023-11-15T01:26:45.124Z,70.35
2023-11-15T01:29:12.964Z,70.58
2023-11-15T01:31:40.508Z,71.17
2023-11-15T01:34:07.886Z,70.82
2023-11-15T01:36:35.456Z,70.53
2023-11-15T01:39:05.468Z,71.12
2023-11-15T01:41:32.943Z,70.83
2023-11-15T01:44:00.268Z,70.87
2023-11-15T01:46:27.855Z,71.27
2023-11-15T01:48:55.313Z,70.95
2023-11-15T01:51:22.669Z,70.67
2023-11-15T01:53:50.444Z,70.42
2023-11-15T01:56:17.951Z,70.79
2023-11-15T01:58:45.396Z,70.53
2023-11-15T02:01:13.356Z,70.46
2023-11-15T02:03:41.172Z,69.92
2023-11-15T02:06:08.593Z,68.92
2023-11-15T02:08:36.185Z,70.36
2023-11-15T02:11:04.517Z,70.99
2023-11-15T02:13:31.849Z,70.53
2023-11-15T02:15:59.434Z,70.94
2023-11-15T02:18:27.208Z,70.04
2023-11-15T02:20:55.074Z,70.59
2023-11-15T02:23:22.674Z,69.99
2023-11-15T02:25:52.339Z,70.13
2023-11-15T02:28:20.155Z,70.36
2023-11-15T02:30:47.631Z,69.50
2023-11-15T02:33:17.252Z,69.96
2023-11-15T02:35:45.288Z,69.65
2023-11-15T02:38:12.635Z,69.17
2023-11-15T02:40:44.692Z,68.89
2023-11-15T02:43:13.909Z,69.28
2023-11-15T02:45:41.714Z,68.54
2023-11-15T02:48:10.022Z,68.95
2023-11-15T02:50:37.738Z,69.41
2023-11-15T02:53:05.144Z,68.75
2023-11-15T02:55:32.441Z,69.17
2023-11-15T02:58:02.069Z,68.84
2023-11-15T03:00:30.503Z,69.81
2023-11-15T03:02:57.933Z,70.00
2023-11-15T03:05:25.681Z,69.99
2023-11-15T03:07:53.372Z,69.97
2023-11-15T03:10:20.632Z,69.52
2023-11-15T03:12:49.769Z,70.46
2023-11-15T03:15:17.248Z,70.46
2023-11-15T03:17:45.077Z,70.11
2023-11-15T03:20:12.774Z,69.71
2023-11-15T03:22:40.131Z,69.33
2023-11-15T03:25:08.120Z,69.89
2023-11-15T03:27:35.794Z,69.89
2023-11-15T03:30:04.121Z,69.94
2023-11-15T03:32:31.841Z,69.67
2023-11-15T03:34:59.553Z,69.30
2023-11-15T03:37:27.883Z,69.19
2023-11-15T03:39:55.113Z,68.79
2023-11-15T03:42:22.907Z,68.87
2023-11-15T03:44:50.190Z,68.62
2023-11-15T03:47:17.460Z,67.96
2023-11-15T03:49:47.206Z,69.45
2023-11-15T03:52:14.465Z,69.12
2023-11-15T03:54:41.776Z,69.30
2023-11-15T03:57:11.938Z,69.30
2023-11-15T03:59:39.571Z,68.37
2023-11-15T04:02:07.747Z,68.30
2023-11-15T04:04:38.457Z,68.60
2023-11-15T04:07:05.921Z,69.93
2023-11-15T04:09:33.969Z,69.23
2023-11-15T04:12:01.899Z,69.96
2023-11-15T04:14:29.425Z,69.63
2023-11-15T04:16:56.673Z,69.55
2023-11-15T04:19:24.420Z,69.81
2023-11-15T04:22:05.109Z,70.15
2023-11-15T04:24:40.222Z,70.41
2023-11-15T04:27:08.320Z,70.32
2023-11-15T04:29:37.811Z,70.64
2023-11-15T04:32:05.383Z,70.51
2023-11-15T04:34:32.844Z,70.36
2023-11-15T04:37:00.086Z,70.72
2023-11-15T04:39:27.630Z,70.90
2023-11-15T04:41:55.145Z,70.64
2023-11-15T04:44:22.652Z,69.84
2023-11-15T04:46:50.399Z,69.14
2023-11-15T04:49:17.638Z,69.77
2023-11-15T04:51:44.924Z,70.59
2023-11-15T04:54:12.877Z,71.45
2023-11-15T04:56:40.364Z,71.02
2023-11-15T04:59:07.713Z,70.92
2023-11-15T05:01:35.583Z,72.07
2023-11-15T05:04:03.311Z,71.59
2023-11-15T05:06:30.974Z,72.23
2023-11-15T05:09:00.634Z,72.74
2023-11-15T05:11:28.013Z,72.84
2023-11-15T05:13:55.392Z,73.05
2023-11-15T05:16:23.544Z,73.11
2023-11-15T05:18:50.960Z,72.76
2023-11-15T05:21:18.332Z,73.01
2023-11-15T05:26:13.664Z,72.34
2023-11-15T05:28:42.997Z,72.03
2023-11-15T05:31:10.665Z,72.07
2023-11-15T05:33:38.074Z,71.65
2023-11-15T05:36:05.607Z,69.84
2023-11-15T05:38:33.419Z,71.37
2023-11-15T05:41:00.738Z,71.55
2023-11-15T05:43:27.967Z,70.73
2023-11-15T05:45:55.643Z,71.27
2023-11-15T05:48:23.224Z,70.85
2023-11-15T05:50:51.247Z,71.16
2023-11-15T05:53:21.007Z,71.23
2023-11-15T05:55:48.444Z,71.52
2023-11-15T05:58:15.765Z,72.10
2023-11-15T06:00:43.515Z,71.23
2023-11-15T06:03:11.602Z,71.39
2023-11-15T06:05:39.776Z,70.46
2023-11-15T06:08:07.206Z,71.09
2023-11-15T06:10:34.699Z,71.57
2023-11-15T06:13:02.445Z,71.62
2023-11-15T06:15:29.873Z,71.21
2023-11-15T06:17:57.836Z,71.16
2023-11-15T06:20:25.158Z,72.24
2023-11-15T06:22:52.637Z,71.83
2023-11-15T06:25:21.277Z,71.04
2023-11-15T06:27:48.619Z,71.26
2023-11-15T06:30:18.387Z,71.09
2023-11-15T06:32:46.600Z,71.64
2023-11-15T06:35:20.357Z,72.16
2023-11-15T06:37:49.969Z,72.59
2023-11-15T06:40:17.460Z,72.30
2023-11-15T06:42:44.986Z,73.01
2023-11-15T06:45:15.669Z,71.91
2023-11-15T06:47:43.886Z,72.01
2023-11-15T06:50:11.677Z,71.38
2023-11-15T06:52:39.651Z,71.48
2023-11-15T06:55:07.747Z,70.97
2023-11-15T06:57:35.112Z,71.07
2023-11-15T07:00:06.153Z,70.80
2023-11-15T07:02:33.613Z,71.20
2023-11-15T07:05:01.265Z,70.51
2023-11-15T07:07:28.861Z,70.41
2023-11-15T07:09:56.580Z,68.33
2023-11-15T07:12:25.141Z,68.36
2023-11-15T07:14:53.848Z,69.28
2023-11-15T07:17:21.258Z,68.92
2023-11-15T07:19:51.769Z,67.67
2023-11-15T07:22:19.539Z,67.66
2023-11-15T07:24:46.818Z,67.74
2023-11-15T07:27:14.211Z,67.32
2023-11-15T07:29:42.062Z,67.14
2023-11-15T07:32:09.387Z,65.61
2023-11-15T07:34:37.716Z,65.58
2023-11-15T07:37:05.319Z,65.61
2023-11-15T07:39:32.752Z,65.71
2023-11-15T07:42:00.651Z,65.58
2023-11-15T07:44:31.392Z,65.11
2023-11-15T07:47:00.645Z,64.40
2023-11-15T07:49:29.973Z,64.65
2023-11-15T07:51:57.410Z,63.53
2023-11-15T07:54:25.131Z,62.74
2023-11-15T07:56:53.073Z,62.80
2023-11-15T07:59:22.896Z,62.27
2023-11-15T08:01:50.311Z,62.58
2023-11-15T08:04:18.416Z,62.09
2023-11-15T08:06:46.945Z,62.13
2023-11-15T08:09:27.961Z,61.29
2023-11-15T08:11:57.033Z,61.84
2023-11-15T08:14:25.582Z,61.55
2023-11-15T08:16:53.424Z,61.04
2023-11-15T08:19:20.975Z,61.33
2023-11-15T08:21:48.685Z,60.78
2023-11-15T08:24:22.867Z,60.78
2023-11-15T08:26:54.385Z,60.11
2023-11-15T08:29:22.540Z,60.64
2023-11-15T08:31:50.810Z,60.63
2023-11-15T08:34:23.167Z,60.68
2023-11-15T08:36:51.703Z,60.14
2023-11-15T08:39:19.382Z,60.60
2023-11-15T08:41:48.148Z,60.61
2023-11-15T08:44:16.512Z,60.45
2023-11-15T08:46:46.283Z,60.74
2023-11-15T08:49:14.360Z,59.66
2023-11-15T08:51:42.690Z,60.46
2023-11-15T08:54:11.428Z,60.03
2023-11-15T08:56:42.513Z,58.96
2023-11-15T08:59:15.891Z,59.36
2023-11-15T09:01:45.960Z,59.32
2023-11-15T09:04:14.915Z,59.34
2023-11-15T09:06:42.897Z,59.70
2023-11-15T09:09:10.308Z,59.88
2023-11-15T09:11:38.158Z,59.04
2023-11-15T09:14:09.558Z,60.31
2023-11-15T09:16:38.077Z,59.48
2023-11-15T09:19:05.963Z,59.32
2023-11-15T09:21:37.966Z,59.08
2023-11-15T09:24:07.108Z,58.66
2023-11-15T09:26:37.169Z,58.44
2023-11-15T09:29:05.143Z,58.55
2023-11-15T09:31:35.093Z,58.61
2023-11-15T09:34:02.535Z,58.00
2023-11-15T09:36:29.854Z,58.26
2023-11-15T09:38:57.484Z,58.97
2023-11-15T09:41:26.137Z,58.50
2023-11-15T09:43:56.633Z,58.76
2023-11-15T09:46:24.543Z,58.46
2023-11-15T09:48:57.190Z,59.49
2023-11-15T09:51:27.744Z,60.20
2023-11-15T09:54:05.000Z,59.94
2023-11-15T09:56:44.610Z,60.23
2023-11-15T09:59:12.695Z,59.88
2023-11-15T10:01:44.012Z,59.09
2023-11-15T10:04:21.449Z,59.57
2023-11-15T10:06:49.393Z,59.58
2023-11-15T10:09:17.001Z,59.32
2023-11-15T10:11:50.527Z,59.35
2023-11-15T10:14:18.355Z,58.16
2023-11-15T10:16:52.126Z,58.17
2023-11-15T10:19:24.483Z,59.50
2023-11-15T10:21:58.697Z,59.74
2023-11-15T10:24:29.515Z,58.93
2023-11-15T10:26:57.343Z,58.94
2023-11-15T10:29:27.394Z,58.68
2023-11-15T10:31:57.987Z,57.81
2023-11-15T10:34:33.950Z,57.68
2023-11-15T10:37:04.205Z,57.42
2023-11-15T10:39:33.334Z,57.01
2023-11-15T10:42:02.256Z,57.20
2023-11-15T10:44:30.549Z,57.38
2023-11-15T10:46:59.256Z,57.87
2023-11-15T10:49:27.217Z,57.64
2023-11-15T10:51:55.687Z,57.44
2023-11-15T10:54:23.027Z,58.39
2023-11-15T10:56:50.929Z,58.21
2023-11-15T10:59:20.286Z,58.28
2023-11-15T11:01:47.713Z,58.41
2023-11-15T11:04:17.084Z,58.49
2023-11-15T11:06:59.482Z,58.47
2023-11-15T11:09:29.437Z,58.74
2023-11-15T11:12:02.078Z,58.25
2023-11-15T11:14:29.393Z,58.59
2023-11-15T11:16:58.137Z,58.75
2023-11-15T11:19:27.170Z,58.33
2023-11-15T11:22:04.724Z,58.79
2023-11-15T11:24:36.175Z,58.16
2023-11-15T11:27:10.468Z,57.78
2023-11-15T11:29:57.042Z,58.12
2023-11-15T11:32:35.621Z,58.55
2023-11-15T11:35:06.968Z,58.32
2023-11-15T11:37:56.949Z,57.44
2023-11-15T11:40:25.223Z,56.67
2023-11-15T11:42:53.945Z,56.83
2023-11-15T11:45:21.865Z,56.86
2023-11-15T11:47:49.921Z,56.31
2023-11-15T11:50:17.563Z,55.28
2023-11-15T11:52:44.813Z,55.42
2023-11-15T11:55:12.685Z,55.77
2023-11-15T11:57:39.932Z,55.96
2023-11-15T12:00:13.388Z,55.99
2023-11-15T12:02:42.212Z,56.18
2023-11-15T12:05:13.069Z,55.57
2023-11-15T12:07:44.432Z,56.06
2023-11-15T12:10:12.364Z,55.24
2023-11-15T12:12:40.742Z,55.63
2023-11-15T12:15:14.446Z,54.53
2023-11-15T12:17:46.817Z,53.49
2023-11-15T12:20:14.652Z,54.45
2023-11-15T12:22:46.051Z,54.46
2023-11-15T12:25:17.275Z,53.73
2023-11-15T12:27:44.934Z,54.00
2023-11-15T12:30:12.491Z,53.61
2023-11-15T12:32:42.807Z,52.50
2023-11-15T12:35:10.525Z,51.81
2023-11-15T12:37:38.251Z,52.02
2023-11-15T12:40:19.085Z,52.19
2023-11-15T12:42:46.912Z,51.79
2023-11-15T12:45:29.400Z,51.17
2023-11-15T12:48:00.672Z,51.83
2023-11-15T12:50:29.079Z,51.83
2023-11-15T12:53:03.428Z,51.97
2023-11-15T12:55:54.443Z,52.34
2023-11-15T12:58:28.174Z,52.32
2023-11-15T13:00:58.685Z,52.78
2023-11-15T13:03:34.643Z,52.70
2023-11-15T13:06:08.632Z,52.45
2023-11-15T13:08:36.489Z,52.14
2023-11-15T13:11:15.797Z,53.08
2023-11-15T13:13:45.808Z,53.29
2023-11-15T13:16:16.264Z,53.16
2023-11-15T13:18:44.580Z,52.77
2023-11-15T13:21:13.770Z,51.97
2023-11-15T13:23:41.594Z,52.77
2023-11-15T13:26:13.335Z,52.21
2023-11-15T13:28:41.071Z,52.57
2023-11-15T13:31:09.024Z,53.43
2023-11-15T13:33:37.640Z,53.49
2023-11-15T13:36:06.753Z,53.44
2023-11-15T13:38:34.828Z,53.08
2023-11-15T13:41:08.604Z,52.84
2023-11-15T13:43:37.969Z,52.86
2023-11-15T13:46:05.997Z,52.59
2023-11-15T13:48:37.398Z,51.79
2023-11-15T13:51:07.812Z,51.64
2023-11-15T13:53:40.177Z,52.83
2023-11-15T13:56:08.509Z,52.34
2023-11-15T13:58:37.657Z,52.65
2023-11-15T14:01:05.952Z,52.54
2023-11-15T14:03:34.158Z,52.96
2023-11-15T14:06:06.058Z,52.97
2023-11-15T14:08:51.305Z,52.92
2023-11-15T14:11:25.216Z,53.18
2023-11-15T14:13:53.018Z,53.01
2023-11-15T14:16:22.165Z,53.26
2023-11-15T14:18:51.179Z,52.40
2023-11-15T14:21:21.445Z,53.11
2023-11-15T14:23:49.536Z,52.35
2023-11-15T14:26:17.014Z,51.57
2023-11-15T14:28:45.171Z,50.69
2023-11-15T14:31:12.673Z,51.25
2023-11-15T14:33:40.456Z,50.99
2023-11-15T14:36:08.795Z,51.38
2023-11-15T14:38:38.148Z,51.34
2023-11-15T14:41:05.671Z,50.92
2023-11-15T14:43:33.797Z,51.09
2023-11-15T14:46:02.540Z,51.33
2023-11-15T14:48:31.261Z,50.01
2023-11-15T14:51:01.321Z,50.36
2023-11-15T14:53:28.862Z,50.50
2023-11-15T14:55:56.816Z,50.55
2023-11-15T14:58:26.306Z,51.18
2023-11-15T15:00:53.787Z,51.37
2023-11-15T15:03:23.716Z,50.91
2023-11-15T15:05:52.946Z,51.26
2023-11-15T15:08:22.961Z,50.95
2023-11-15T15:10:54.683Z,51.10
2023-11-15T15:13:22.883Z,51.34
2023-11-15T15:15:50.288Z,51.67
2023-11-15T15:18:22.063Z,51.67
2023-11-15T15:20:53.731Z,52.41
2023-11-15T15:23:21.556Z,52.24
2023-11-15T15:25:48.836Z,51.69
2023-11-15T15:28:16.418Z,52.08
2023-11-15T15:30:44.256Z,51.45
2023-11-15T15:33:12.027Z,51.21
2023-11-15T15:35:40.248Z,50.94
2023-11-15T15:38:09.848Z,51.45
2023-11-15T15:40:39.674Z,51.29
2023-11-15T15:43:07.465Z,50.80
2023-11-15T15:45:36.763Z,50.29
2023-11-15T15:48:05.966Z,51.51
2023-11-15T15:50:34.268Z,50.73
2023-11-15T15:53:01.769Z,51.03
2023-11-15T15:55:29.070Z,50.97
2023-11-15T15:57:56.739Z,50.95
2023-11-15T16:00:25.193Z,51.34
2023-11-15T16:02:54.285Z,51.25
2023-11-15T16:05:22.771Z,51.53
2023-11-15T16:07:50.017Z,51.33
2023-11-15T16:10:17.562Z,51.17
2023-11-15T16:12:44.806Z,51.29
2023-11-15T16:15:17.701Z,51.42
2023-11-15T16:17:45.882Z,51.72
2023-11-15T16:20:13.821Z,51.53
2023-11-15T16:22:41.218Z,51.52
2023-11-15T16:25:09.500Z,51.23
2023-11-15T16:27:37.800Z,51.65
2023-11-15T16:30:06.705Z,51.22
2023-11-15T16:32:36.587Z,51.00
2023-11-15T16:35:05.508Z,51.78
2023-11-15T16:37:36.294Z,52.19
2023-11-15T16:40:07.487Z,52.24
2023-11-15T16:42:34.776Z,52.64
2023-11-15T16:45:02.811Z,52.68
2023-11-15T16:47:30.478Z,52.88
2023-11-15T16:49:59.298Z,53.18
2023-11-15T16:52:26.634Z,52.75
2023-11-15T16:54:54.442Z,52.55
2023-11-15T16:57:22.280Z,52.17
2023-11-15T16:59:50.559Z,52.65
2023-11-15T17:02:18.686Z,53.32
2023-11-15T17:04:46.233Z,53.45
2023-11-15T17:07:13.703Z,54.00
2023-11-15T17:09:42.266Z,53.21
2023-11-15T17:12:09.806Z,53.52
2023-11-15T17:14:37.158Z,53.49
2023-11-15T17:17:05.697Z,53.06
2023-11-15T17:19:33.280Z,53.08
2023-11-15T17:22:00.744Z,53.16
2023-11-15T17:24:28.512Z,55.86
2023-11-15T17:26:56.982Z,53.28
2023-11-15T17:29:24.346Z,53.92
2023-11-15T17:31:52.220Z,57.05
2023-11-15T17:34:20.008Z,53.98
2023-11-15T17:36:47.345Z,53.70
2023-11-15T17:39:16.619Z,52.97
2023-11-15T17:41:43.999Z,53.58
2023-11-15T17:44:15.841Z,53.94
2023-11-15T17:46:43.910Z,53.79
2023-11-15T17:49:12.181Z,53.95
2023-11-15T17:51:39.762Z,54.13
2023-11-15T17:54:08.651Z,53.44
2023-11-15T17:56:36.157Z,53.47
2023-11-15T17:59:05.408Z,53.29
2023-11-15T18:01:34.129Z,53.16
2023-11-15T18:04:02.332Z,53.22
2023-11-15T18:06:29.988Z,52.91
2023-11-15T18:08:57.352Z,52.85
2023-11-15T18:11:24.900Z,52.73
2023-11-15T18:13:54.590Z,53.40
2023-11-15T18:16:23.209Z,52.73
2023-11-15T18:18:51.375Z,52.99
2023-11-15T18:21:18.957Z,53.13
2023-11-15T18:23:46.374Z,52.46
2023-11-15T18:26:14.052Z,52.75
2023-11-15T18:28:41.739Z,52.70
2023-11-15T18:31:09.735Z,52.15
2023-11-15T18:33:40.526Z,52.33
2023-11-15T18:36:11.409Z,52.14
2023-11-15T18:38:40.849Z,52.27
2023-11-15T18:41:09.493Z,51.80
2023-11-15T18:43:37.949Z,51.58
2023-11-15T18:46:08.441Z,52.00
2023-11-15T18:48:38.576Z,51.45
2023-11-15T18:51:07.478Z,51.32
2023-11-15T18:53:35.620Z,51.53
2023-11-15T18:56:03.618Z,51.73
2023-11-15T18:58:32.829Z,52.43
2023-11-15T19:01:01.959Z,52.74
2023-11-15T19:03:29.916Z,52.82
2023-11-15T19:05:58.914Z,52.45
2023-11-15T19:08:28.466Z,52.52
2023-11-15T19:10:57.373Z,52.05
2023-11-15T19:13:28.680Z,52.43
2023-11-15T19:15:59.434Z,67.58
2023-11-15T19:18:30.141Z,55.83
2023-11-15T19:20:59.386Z,52.86
2023-11-15T19:23:29.212Z,52.83
2023-11-15T19:25:57.733Z,52.92
2023-11-15T19:28:26.252Z,52.60
2023-11-15T19:30:55.573Z,52.23
2023-11-15T19:33:24.772Z,51.32
2023-11-15T19:35:54.183Z,51.52
2023-11-15T19:38:23.469Z,52.24
2023-11-15T19:40:51.881Z,52.53
2023-11-15T19:43:20.907Z,51.70
2023-11-15T19:45:56.761Z,51.99
2023-11-15T19:48:28.409Z,52.26
2023-11-15T19:50:57.776Z,52.30
2023-11-15T19:53:27.319Z,52.59
2023-11-15T19:55:56.401Z,52.50
2023-11-15T19:58:27.240Z,52.73
2023-11-15T20:00:57.397Z,53.14
2023-11-15T20:03:27.990Z,53.43
2023-11-15T20:05:57.107Z,53.24
2023-11-15T20:08:26.437Z,53.23
2023-11-15T20:10:56.330Z,53.75
2023-11-15T20:13:25.306Z,54.92
2023-11-15T20:15:55.266Z,54.43
2023-11-15T20:18:24.353Z,54.22
2023-11-15T20:20:53.428Z,54.70
2023-11-15T20:23:22.842Z,54.50
2023-11-15T20:25:51.793Z,54.80
2023-11-15T20:28:24.457Z,55.17
2023-11-15T20:30:55.032Z,55.10
2023-11-15T20:33:23.467Z,55.63
2023-11-15T20:35:51.671Z,54.80
2023-11-15T20:38:20.867Z,54.53
2023-11-15T20:40:52.994Z,54.73
2023-11-15T20:43:22.140Z,54.75
2023-11-15T20:46:04.470Z,55.20
2023-11-15T20:48:40.053Z,54.76
2023-11-15T20:51:07.677Z,54.43
2023-11-15T20:53:35.777Z,54.13
2023-11-15T20:56:03.949Z,53.32
2023-11-15T20:58:31.475Z,54.34
2023-11-15T21:00:58.759Z,54.17
2023-11-15T21:03:27.700Z,53.87
2023-11-15T21:05:55.255Z,53.40
2023-11-15T21:08:23.340Z,54.22
2023-11-15T21:10:54.487Z,53.96
2023-11-15T21:13:23.231Z,54.41
2023-11-15T21:15:51.035Z,54.56
2023-11-15T21:18:18.345Z,54.79
2023-11-15T21:20:45.955Z,55.03
2023-11-15T21:23:13.594Z,55.34
2023-11-15T21:25:40.946Z,56.19
2023-11-15T21:28:08.240Z,55.98
2023-11-15T21:30:38.119Z,56.42
2023-11-15T21:33:05.786Z,56.72
2023-11-15T21:35:33.103Z,56.17
2023-11-15T21:38:04.280Z,56.39
2023-11-15T21:40:31.559Z,56.83
2023-11-15T21:42:59.065Z,56.53
2023-11-15T21:45:26.830Z,56.18
2023-11-15T21:47:55.224Z,56.58
2023-11-15T21:50:22.673Z,56.44
2023-11-15T21:52:50.615Z,56.23
2023-11-15T21:55:18.404Z,56.67
2023-11-15T21:57:47.036Z,57.31
2023-11-15T22:00:17.170Z,56.91
2023-11-15T22:02:45.181Z,56.95
2023-11-15T22:05:12.707Z,56.94
2023-11-15T22:07:40.343Z,55.92
2023-11-15T22:10:13.637Z,56.19
2023-11-15T22:12:42.205Z,56.49
2023-11-15T22:15:10.597Z,56.63
2023-11-15T22:17:39.013Z,57.37
2023-11-15T22:20:11.085Z,57.06
2023-11-15T22:22:39.005Z,57.42
2023-11-15T22:25:09.246Z,56.58
2023-11-15T22:27:37.062Z,56.64
2023-11-15T22:30:05.651Z,57.40
2023-11-15T22:32:34.311Z,57.76
2023-11-15T22:35:03.999Z,58.64
2023-11-15T22:37:31.504Z,59.13
2023-11-15T22:39:59.514Z,59.15
2023-11-15T22:42:27.744Z,59.56
2023-11-15T22:44:55.421Z,59.33
2023-11-15T22:47:22.678Z,59.92
2023-11-15T22:49:51.375Z,60.41
2023-11-15T22:52:18.866Z,60.81
2023-11-15T22:54:46.090Z,59.64
2023-11-15T22:57:13.372Z,59.98
2023-11-15T22:59:41.117Z,59.77
2023-11-15T23:02:08.797Z,59.62
2023-11-15T23:04:36.503Z,59.27
2023-11-15T23:07:04.362Z,60.04
2023-11-15T23:09:32.636Z,59.35
2023-11-15T23:11:59.949Z,59.11
2023-11-15T23:14:28.320Z,60.10
2023-11-15T23:16:56.544Z,60.01
2023-11-15T23:19:23.818Z,59.12
2023-11-15T23:21:59.287Z,59.84
2023-11-15T23:24:30.805Z,59.51
2023-11-15T23:27:00.109Z,60.28
2023-11-15T23:29:29.378Z,60.25
2023-11-15T23:31:57.668Z,59.99
2023-11-15T23:34:25.335Z,59.58
2023-11-15T23:36:53.259Z,59.88
2023-11-15T23:39:23.894Z,58.99
2023-11-15T23:41:51.666Z,58.94
2023-11-15T23:44:19.511Z,58.99
2023-11-15T23:46:50.646Z,59.74
2023-11-15T23:49:19.684Z,59.23
2023-11-15T23:51:47.118Z,59.68
2023-11-15T23:54:14.380Z,60.52
2023-11-15T23:56:44.856Z,60.37
2023-11-15T23:59:12.249Z,60.36
